Terminal Aerodrome Forecast
Issued by NWS Cleveland, OH

Home | Current Version | Previous Version | Text Only | Print | Product List | Glossary On
Versions: 1 2 3 4 5 6 7 8 9 10 11 12 13 14 15 16 17 18 19 20 21 22 23 24 25
130
FTUS41 KCLE 242104 AAA
TAFMFD
TAF AMD
KMFD 242104Z 2421/2518 28008KT 5SM BR OVC003
      TEMPO 2421/2422 2SM BR
     FM242200 28006KT P6SM OVC006
     FM250000 26006KT P6SM OVC012
     FM250400 22004KT P6SM OVC015
     FM251000 16008KT P6SM OVC020
     FM251500 18010G18KT P6SM SCT020 BKN100=

USA.gov is the U.S. government's official web portal to all federal, state and local government web resources and services.